Time;durP1;ratioP1;P1;durP2;ratioP2;P2;SDS_P1;SDS_P2;PMS_P1;PMS_P2;Temp;Humidity;BMP_temperature;BMP_pressure;BME280_temperature;BME280_humidity;BME280_pressure;Samples;Min_cycle;Max_cycle;Signal;HPM_P1;HPM_P2
2022/06/30 00:01:46;;;;;;;8.40;7.60;;;22.90;99.90;;;;;;10353002;28;20272;-66
2022/06/30 00:06:46;;;;;;;7.83;7.00;;;22.90;99.90;;;;;;10355618;28;20260;-66
2022/06/30 00:11:47;;;;;;;9.03;7.30;;;22.80;99.90;;;;;;10358048;28;20734;-66
2022/06/30 00:16:48;;;;;;;7.37;6.70;;;22.80;99.90;;;;;;10335374;28;20249;-67
2022/06/30 00:21:49;;;;;;;8.23;7.33;;;22.70;99.90;;;;;;10343678;28;20230;-67
2022/06/30 00:26:50;;;;;;;8.03;7.33;;;22.60;99.90;;;;;;10346332;28;20319;-68
2022/06/30 00:31:50;;;;;;;7.90;6.97;;;22.50;99.90;;;;;;10345670;28;20247;-68
2022/06/30 00:36:51;;;;;;;10.00;7.67;;;22.50;99.90;;;;;;10345081;28;20711;-66
2022/06/30 00:41:52;;;;;;;8.70;7.10;;;22.40;99.90;;;;;;10324063;28;20233;-66
2022/06/30 00:46:52;;;;;;;10.27;8.23;;;22.30;99.90;;;;;;10350582;28;20229;-66
2022/06/30 00:51:53;;;;;;;8.20;7.37;;;22.30;99.90;;;;;;10345965;28;20234;-67
2022/06/30 00:56:55;;;;;;;10.17;6.67;;;22.20;99.90;;;;;;10353218;28;20252;-66
2022/06/30 01:01:59;;;;;;;7.73;6.40;;;22.20;99.90;;;;;;10327296;28;20329;-66
2022/06/30 01:07:01;;;;;;;7.30;6.47;;;22.10;99.90;;;;;;10342473;28;20284;-66
2022/06/30 01:17:22;;;;;;;8.07;6.63;;;22.00;99.90;;;;;;10332373;28;20237;-66
2022/06/30 01:22:23;;;;;;;8.10;6.37;;;22.00;99.90;;;;;;10330503;28;20317;-65
2022/06/30 01:27:23;;;;;;;7.73;5.83;;;22.00;99.90;;;;;;10348901;28;20743;-66
2022/06/30 01:32:25;;;;;;;6.50;5.90;;;22.00;99.90;;;;;;10322076;28;20226;-67
2022/06/30 01:37:26;;;;;;;7.67;6.50;;;21.90;99.90;;;;;;10341264;28;20241;-66
2022/06/30 01:42:27;;;;;;;7.90;7.10;;;21.80;99.90;;;;;;10323903;28;20226;-66
2022/06/30 01:47:28;;;;;;;7.60;6.77;;;21.80;99.90;;;;;;10315638;28;20236;-66
2022/06/30 01:52:28;;;;;;;7.40;6.37;;;21.70;99.90;;;;;;10343416;28;20229;-66
2022/06/30 01:57:29;;;;;;;8.87;6.90;;;21.80;99.90;;;;;;10349780;28;20291;-66
2022/06/30 02:02:30;;;;;;;7.67;6.67;;;21.80;99.90;;;;;;10317318;28;20218;-66
2022/06/30 02:07:36;;;;;;;7.23;6.53;;;21.90;99.90;;;;;;10323410;28;20214;-67
2022/06/30 02:12:47;;;;;;;7.07;6.37;;;21.90;99.90;;;;;;10328780;28;20218;-67
2022/06/30 02:17:50;;;;;;;7.17;6.53;;;21.90;99.90;;;;;;10347145;28;20570;-66
2022/06/30 02:22:57;;;;;;;7.10;6.40;;;22.00;99.90;;;;;;10337742;28;20217;-67
2022/06/30 02:27:58;;;;;;;7.37;5.80;;;22.10;99.90;;;;;;10345759;28;20825;-67
2022/06/30 02:32:58;;;;;;;6.80;5.83;;;22.10;99.90;;;;;;10304751;28;20249;-66
2022/06/30 02:37:59;;;;;;;8.20;6.07;;;22.10;99.90;;;;;;10341114;28;20218;-68
2022/06/30 02:43:00;;;;;;;6.07;5.50;;;22.00;99.90;;;;;;10332542;28;20230;-68
2022/06/30 02:48:00;;;;;;;6.83;5.80;;;21.90;99.90;;;;;;10332839;28;20238;-68
2022/06/30 02:53:01;;;;;;;6.30;5.70;;;21.80;99.90;;;;;;10334671;28;20236;-68
2022/06/30 02:58:02;;;;;;;6.33;5.40;;;21.80;99.90;;;;;;10352401;28;20210;-68
2022/06/30 03:03:02;;;;;;;9.17;6.33;;;21.70;99.90;;;;;;10326660;28;20269;-67
2022/06/30 03:08:03;;;;;;;7.27;6.30;;;21.60;99.90;;;;;;10352463;28;20578;-68
2022/06/30 03:13:04;;;;;;;8.10;6.30;;;21.50;99.90;;;;;;10324229;28;20222;-68
2022/06/30 03:18:04;;;;;;;7.17;6.00;;;21.40;99.90;;;;;;10324997;28;20293;-67
2022/06/30 03:23:05;;;;;;;8.37;6.70;;;21.30;99.90;;;;;;10334798;28;20229;-67
2022/06/30 03:28:06;;;;;;;7.80;7.00;;;21.20;99.90;;;;;;10345010;28;20225;-67
2022/06/30 03:33:06;;;;;;;6.93;6.33;;;21.00;99.90;;;;;;10311585;28;20218;-67
2022/06/30 03:38:07;;;;;;;7.13;6.43;;;20.90;99.90;;;;;;10340498;28;20225;-67
2022/06/30 03:43:08;;;;;;;8.00;7.03;;;20.80;99.90;;;;;;10327915;28;20218;-66
2022/06/30 03:48:08;;;;;;;10.57;7.03;;;20.70;99.90;;;;;;10339766;28;20235;-67
2022/06/30 03:53:09;;;;;;;8.00;6.77;;;20.70;99.90;;;;;;10332499;28;20221;-67
2022/06/30 03:58:10;;;;;;;12.93;7.40;;;20.80;99.90;;;;;;10333587;28;20220;-67
2022/06/30 04:03:10;;;;;;;7.83;7.13;;;20.90;99.90;;;;;;10342800;28;20241;-67
2022/06/30 04:08:11;;;;;;;9.87;7.60;;;21.00;99.90;;;;;;10332796;28;20257;-67
2022/06/30 04:13:12;;;;;;;11.83;6.97;;;21.20;99.90;;;;;;10320219;28;20215;-67
2022/06/30 04:18:12;;;;;;;7.20;6.03;;;21.30;99.90;;;;;;10331123;28;20214;-67
2022/06/30 04:23:13;;;;;;;9.13;6.30;;;21.40;99.90;;;;;;10339349;28;20226;-68
2022/06/30 04:28:14;;;;;;;8.33;6.90;;;21.60;99.90;;;;;;10329516;28;20326;-66
2022/06/30 04:33:15;;;;;;;6.33;5.63;;;21.70;99.90;;;;;;10345946;28;20882;-66
2022/06/30 04:38:15;;;;;;;6.97;6.27;;;21.80;99.90;;;;;;10331947;28;20225;-68
2022/06/30 04:43:16;;;;;;;9.10;6.60;;;22.20;99.90;;;;;;10317713;28;20261;-69
2022/06/30 04:48:17;;;;;;;7.20;6.47;;;22.60;99.90;;;;;;10317513;28;20226;-69
2022/06/30 04:53:17;;;;;;;6.67;6.00;;;22.70;99.90;;;;;;10347515;28;20730;-69
2022/06/30 04:58:18;;;;;;;8.30;5.37;;;22.80;99.90;;;;;;10322099;28;20222;-69
2022/06/30 05:03:19;;;;;;;7.37;6.10;;;22.90;99.90;;;;;;10338622;28;20372;-68
2022/06/30 05:08:20;;;;;;;11.37;6.07;;;23.10;99.90;;;;;;10341662;28;20230;-68
2022/06/30 05:13:21;;;;;;;9.17;4.70;;;24.60;99.90;;;;;;10351818;28;20735;-69
2022/06/30 05:18:24;;;;;;;9.30;5.13;;;27.20;99.90;;;;;;10326480;28;20218;-69
2022/06/30 05:23:25;;;;;;;9.47;5.17;;;28.90;99.90;;;;;;10321588;28;20222;-69
2022/06/30 05:28:26;;;;;;;7.10;4.30;;;30.40;99.10;;;;;;10345717;28;20232;-69
2022/06/30 05:33:27;;;;;;;6.13;4.13;;;31.60;93.40;;;;;;10348891;28;20228;-70
2022/06/30 05:38:27;;;;;;;8.63;5.00;;;32.40;87.90;;;;;;10339516;28;20226;-68
2022/06/30 05:43:28;;;;;;;5.57;4.50;;;32.80;80.10;;;;;;10352439;28;20218;-69
2022/06/30 05:48:28;;;;;;;8.47;4.33;;;33.10;75.40;;;;;;10328946;28;20628;-68
2022/06/30 05:53:29;;;;;;;6.20;4.33;;;34.10;71.00;;;;;;10345736;28;20217;-69
2022/06/30 05:58:30;;;;;;;8.13;5.20;;;34.80;65.20;;;;;;10335153;28;20210;-69
2022/06/30 06:03:30;;;;;;;7.30;3.80;;;34.70;62.50;;;;;;10348280;28;20636;-69
2022/06/30 06:08:31;;;;;;;5.30;3.80;;;35.50;60.50;;;;;;10334721;28;20712;-70
2022/06/30 06:13:32;;;;;;;7.37;3.20;;;36.30;56.80;;;;;;10347059;28;20335;-69
2022/06/30 06:18:33;;;;;;;6.27;3.50;;;36.70;55.20;;;;;;10349114;28;20218;-70
2022/06/30 06:23:33;;;;;;;8.33;3.30;;;37.40;53.20;;;;;;10348648;28;20213;-69
2022/06/30 06:33:53;;;;;;;4.93;3.90;;;38.70;49.30;;;;;;10345734;28;20218;-69
2022/06/30 06:38:54;;;;;;;8.40;4.50;;;39.30;47.00;;;;;;10345711;28;20218;-69
2022/06/30 06:43:55;;;;;;;10.13;4.37;;;40.10;45.90;;;;;;10345384;28;20760;-68
2022/06/30 06:49:00;;;;;;;5.83;4.17;;;39.00;46.40;;;;;;10344072;28;20233;-70
2022/06/30 06:54:01;;;;;;;5.60;3.90;;;40.00;45.10;;;;;;10351024;28;20226;-69
2022/06/30 06:59:02;;;;;;;6.10;4.63;;;40.90;43.40;;;;;;10347677;28;20217;-71
2022/06/30 07:04:03;;;;;;;7.43;5.13;;;41.30;42.00;;;;;;10351288;28;20664;-70
2022/06/30 07:09:03;;;;;;;4.80;4.23;;;40.70;42.00;;;;;;10342852;28;20230;-69
2022/06/30 07:14:04;;;;;;;8.67;4.33;;;41.40;41.60;;;;;;10350240;28;20300;-70
2022/06/30 07:19:04;;;;;;;4.33;3.93;;;42.00;40.70;;;;;;10342508;28;20260;-69
2022/06/30 07:24:05;;;;;;;5.07;3.90;;;42.30;40.10;;;;;;10350154;28;20237;-70
2022/06/30 07:29:06;;;;;;;6.18;4.30;;;43.40;38.90;;;;;;10334436;28;20293;-69
2022/06/30 07:34:07;;;;;;;9.07;4.53;;;44.10;37.50;;;;;;10346013;28;20221;-70
2022/06/30 07:39:07;;;;;;;6.70;3.97;;;44.60;36.40;;;;;;10350991;28;20237;-69
2022/06/30 07:44:08;;;;;;;5.97;4.72;;;44.70;36.30;;;;;;10343273;28;20225;-70
2022/06/30 07:49:09;;;;;;;5.07;4.55;;;44.80;35.00;;;;;;10350084;28;20248;-70
2022/06/30 07:54:09;;;;;;;4.40;4.00;;;44.20;35.90;;;;;;10350209;28;20713;-70
2022/06/30 07:59:10;;;;;;;6.57;4.57;;;44.60;35.50;;;;;;10348250;28;20265;-69
2022/06/30 08:04:11;;;;;;;5.63;4.88;;;45.20;35.20;;;;;;10349777;28;20248;-70
2022/06/30 08:09:12;;;;;;;5.72;4.10;;;45.60;34.10;;;;;;10356063;28;20226;-69
2022/06/30 08:14:13;;;;;;;6.22;4.45;;;45.90;34.90;;;;;;10356133;28;20217;-70
2022/06/30 08:19:14;;;;;;;5.25;4.75;;;46.10;33.40;;;;;;10332108;28;20688;-69
2022/06/30 08:24:15;;;;;;;5.03;4.28;;;46.50;32.40;;;;;;10355334;28;20268;-70
2022/06/30 08:29:16;;;;;;;7.20;4.30;;;46.80;32.40;;;;;;10349473;28;20233;-70
2022/06/30 08:34:17;;;;;;;9.02;5.53;;;47.00;32.10;;;;;;10351380;28;20209;-70
2022/06/30 08:44:37;;;;;;;5.38;4.53;;;46.70;32.40;;;;;;10351844;28;20222;-70
2022/06/30 08:49:38;;;;;;;18.52;5.10;;;47.40;31.30;;;;;;10351873;28;20700;-70
2022/06/30 08:54:39;;;;;;;6.75;5.10;;;47.80;31.10;;;;;;10355117;28;20217;-70
2022/06/30 08:59:41;;;;;;;5.88;4.82;;;47.20;30.70;;;;;;10349838;28;20214;-68
2022/06/30 09:04:42;;;;;;;5.90;5.30;;;46.10;32.50;;;;;;10354730;28;20240;-70
2022/06/30 09:09:43;;;;;;;7.43;5.15;;;46.40;31.10;;;;;;10349840;28;20233;-69
2022/06/30 09:14:46;;;;;;;4.23;3.87;;;44.00;33.60;;;;;;10350924;28;20213;-69
2022/06/30 09:20:12;;;;;;;5.27;4.33;;;41.50;36.80;;;;;;10349353;28;20244;-69
2022/06/30 09:25:20;;;;;;;4.87;4.20;;;39.90;39.00;;;;;;10340863;28;20214;-69
2022/06/30 09:30:23;;;;;;;7.73;5.23;;;37.70;42.50;;;;;;10352959;28;20205;-70
2022/06/30 09:35:28;;;;;;;5.00;4.50;;;36.80;43.80;;;;;;10349442;28;20253;-69
2022/06/30 09:40:34;;;;;;;8.73;5.40;;;36.40;45.20;;;;;;10329055;28;20562;-68
2022/06/30 09:45:37;;;;;;;7.07;4.70;;;35.90;45.40;;;;;;10350400;28;20210;-69
2022/06/30 09:50:38;;;;;;;5.63;5.03;;;35.70;45.90;;;;;;10331886;28;20731;-68
2022/06/30 09:55:42;;;;;;;6.40;5.47;;;36.00;45.10;;;;;;10348428;28;20405;-68
2022/06/30 10:00:50;;;;;;;6.53;5.70;;;35.80;45.00;;;;;;10347187;28;20822;-69
2022/06/30 10:06:13;;;;;;;7.53;4.97;;;35.80;44.90;;;;;;10346849;28;20732;-68
2022/06/30 10:11:14;;;;;;;8.50;5.23;;;36.50;43.70;;;;;;10329486;28;20291;-68
2022/06/30 10:16:17;;;;;;;5.83;4.93;;;36.80;43.50;;;;;;10345502;28;20222;-69
2022/06/30 10:21:21;;;;;;;6.10;4.43;;;36.40;44.80;;;;;;10350922;28;20675;-68
2022/06/30 10:32:08;;;;;;;6.33;4.00;;;42.70;35.20;;;;;;10352449;28;20225;-70
2022/06/30 10:37:25;;;;;;;7.47;3.47;;;42.30;34.20;;;;;;10338950;28;20221;-70
2022/06/30 10:42:46;;;;;;;5.33;4.23;;;42.20;34.50;;;;;;10342693;28;20232;-70
2022/06/30 10:47:56;;;;;;;6.07;3.83;;;43.20;34.20;;;;;;10347867;28;20236;-70
2022/06/30 10:52:56;;;;;;;8.43;4.70;;;42.50;33.40;;;;;;10350700;28;20283;-69
2022/06/30 10:58:08;;;;;;;6.53;4.43;;;41.20;35.60;;;;;;10338790;28;20246;-70
2022/06/30 11:03:08;;;;;;;7.50;4.20;;;40.10;38.10;;;;;;10343337;28;20224;-69
2022/06/30 11:08:48;;;;;;;4.57;3.67;;;39.80;37.90;;;;;;10342667;28;20233;-69
2022/06/30 11:14:01;;;;;;;8.07;3.97;;;38.50;39.50;;;;;;10342406;28;20245;-69
2022/06/30 11:19:06;;;;;;;6.73;4.37;;;37.70;40.90;;;;;;10350147;28;20719;-69
2022/06/30 11:24:08;;;;;;;7.33;4.10;;;38.10;40.90;;;;;;10317402;28;20675;-68
2022/06/30 11:29:14;;;;;;;4.67;3.40;;;39.20;38.10;;;;;;10349756;28;20229;-69
2022/06/30 11:34:18;;;;;;;8.33;4.00;;;39.70;38.30;;;;;;10342788;28;20214;-69
2022/06/30 11:39:22;;;;;;;4.47;3.43;;;39.50;36.60;;;;;;10355504;28;20219;-69
2022/06/30 11:44:29;;;;;;;5.77;3.90;;;38.60;38.70;;;;;;10351765;28;20283;-69
2022/06/30 11:49:51;;;;;;;6.73;4.47;;;37.50;39.70;;;;;;10357626;28;20225;-69
2022/06/30 11:54:57;;;;;;;6.50;4.63;;;35.70;43.00;;;;;;10362208;28;20242;-70
2022/06/30 12:00:03;;;;;;;6.93;4.90;;;34.90;43.90;;;;;;10356477;28;20243;-69
2022/06/30 12:05:09;;;;;;;7.53;5.00;;;34.60;44.40;;;;;;10352029;28;20291;-69
2022/06/30 12:10:12;;;;;;;5.57;4.23;;;34.40;45.80;;;;;;10349056;28;20327;-70
2022/06/30 12:15:15;;;;;;;5.63;4.50;;;34.40;45.20;;;;;;10349977;28;20178;-68
2022/06/30 12:20:16;;;;;;;7.17;4.57;;;34.40;45.70;;;;;;10355958;28;20188;-69
2022/06/30 12:25:18;;;;;;;4.47;3.63;;;34.40;45.50;;;;;;10332213;28;20206;-69
2022/06/30 12:30:24;;;;;;;4.57;4.17;;;34.50;43.70;;;;;;10354867;28;20761;-69
2022/06/30 12:35:29;;;;;;;3.30;2.90;;;34.30;45.00;;;;;;10332826;28;20218;-69
2022/06/30 12:40:30;;;;;;;5.37;2.57;;;34.50;41.30;;;;;;10347746;28;20213;-69
2022/06/30 12:45:36;;;;;;;4.90;2.73;;;34.70;39.80;;;;;;10350777;28;20216;-68
2022/06/30 12:50:39;;;;;;;3.17;2.80;;;34.20;40.50;;;;;;10346207;28;20236;-69
2022/06/30 12:56:00;;;;;;;4.73;2.87;;;34.00;41.90;;;;;;10347928;28;20226;-70
2022/06/30 13:01:02;;;;;;;4.33;2.53;;;34.00;41.30;;;;;;10354341;28;20216;-68
2022/06/30 13:06:02;;;;;;;7.13;3.20;;;34.10;41.60;;;;;;10347329;28;20221;-69
2022/06/30 13:11:11;;;;;;;2.77;2.57;;;34.30;40.90;;;;;;10346319;28;20229;-68
2022/06/30 13:16:13;;;;;;;5.73;2.50;;;34.40;40.90;;;;;;10339560;28;20253;-70
2022/06/30 13:21:15;;;;;;;3.43;2.77;;;34.40;40.40;;;;;;10353193;28;20252;-69
2022/06/30 13:26:17;;;;;;;3.67;2.50;;;34.40;40.50;;;;;;10347293;28;20312;-69
2022/06/30 13:31:21;;;;;;;2.93;2.40;;;34.50;40.70;;;;;;10352081;28;20228;-69
2022/06/30 13:36:22;;;;;;;3.23;2.50;;;34.50;40.60;;;;;;10323751;28;20241;-69
2022/06/30 13:41:23;;;;;;;4.63;2.23;;;34.20;41.50;;;;;;10347639;28;20226;-70
2022/06/30 13:46:27;;;;;;;4.20;2.70;;;33.50;41.30;;;;;;10350515;28;20240;-69
2022/06/30 13:51:28;;;;;;;7.13;2.70;;;33.10;42.10;;;;;;10348503;28;20229;-69
2022/06/30 13:56:29;;;;;;;2.83;2.07;;;32.90;42.70;;;;;;10353276;28;20751;-69
2022/06/30 14:01:30;;;;;;;5.27;2.30;;;33.00;41.60;;;;;;10349363;28;20225;-70
2022/06/30 14:06:30;;;;;;;5.37;2.53;;;33.00;41.50;;;;;;10349486;28;20222;-69
2022/06/30 14:11:31;;;;;;;2.37;2.03;;;33.20;41.70;;;;;;10344842;28;20596;-69
2022/06/30 14:16:32;;;;;;;2.87;2.07;;;33.30;41.20;;;;;;10350008;28;20222;-69
2022/06/30 14:21:34;;;;;;;2.93;2.30;;;33.30;40.90;;;;;;10348635;28;20217;-69
2022/06/30 14:26:34;;;;;;;2.33;2.13;;;33.20;41.10;;;;;;10348863;28;20248;-69
2022/06/30 14:31:35;;;;;;;4.77;2.07;;;33.10;40.70;;;;;;10354996;28;20767;-69
2022/06/30 14:36:37;;;;;;;3.50;2.10;;;32.80;41.10;;;;;;10349218;28;20829;-69
2022/06/30 14:46:56;;;;;;;2.93;2.00;;;32.30;40.60;;;;;;10344298;28;20294;-68
2022/06/30 14:51:57;;;;;;;2.83;1.90;;;32.30;40.80;;;;;;10340483;28;20324;-68
2022/06/30 14:56:57;;;;;;;3.73;2.07;;;32.00;40.60;;;;;;10343454;28;20218;-70
2022/06/30 15:01:58;;;;;;;4.73;2.30;;;31.80;40.90;;;;;;10350230;28;20252;-70
2022/06/30 15:06:59;;;;;;;2.50;2.03;;;31.70;41.30;;;;;;10343291;28;20220;-69
2022/06/30 15:12:00;;;;;;;2.77;1.90;;;31.80;42.00;;;;;;10342948;28;20724;-69
2022/06/30 15:17:01;;;;;;;4.20;1.63;;;32.00;39.20;;;;;;10349832;28;20221;-69
2022/06/30 15:27:40;;;;;;;2.07;1.70;;;32.00;40.30;;;;;;10261292;28;20320;-69
2022/06/30 15:32:40;;;;;;;2.17;2.00;;;32.10;40.70;;;;;;10324144;28;20233;-69
2022/06/30 15:37:41;;;;;;;3.50;2.00;;;32.10;40.30;;;;;;10347142;28;20727;-69
2022/06/30 15:42:42;;;;;;;2.97;2.10;;;32.10;40.70;;;;;;10350500;28;20677;-69
2022/06/30 15:47:43;;;;;;;2.77;2.10;;;32.10;40.20;;;;;;10327679;28;20323;-70
2022/06/30 15:52:44;;;;;;;2.10;1.90;;;32.10;40.40;;;;;;10345191;28;20316;-69
2022/06/30 15:57:45;;;;;;;3.27;2.00;;;32.20;40.60;;;;;;10350764;28;20222;-69
2022/06/30 16:02:45;;;;;;;2.30;2.10;;;32.10;41.00;;;;;;10352191;28;20590;-69
2022/06/30 16:07:46;;;;;;;4.37;2.20;;;32.00;40.80;;;;;;10339056;28;20804;-68
2022/06/30 16:12:47;;;;;;;2.90;2.13;;;32.10;41.10;;;;;;10342151;28;20280;-69
2022/06/30 16:17:49;;;;;;;3.70;2.10;;;32.30;40.30;;;;;;10348979;28;20252;-68
2022/06/30 16:22:50;;;;;;;2.10;1.70;;;32.40;39.80;;;;;;10347002;28;20292;-69
2022/06/30 16:27:51;;;;;;;3.80;2.10;;;32.60;40.00;;;;;;10337106;28;20291;-68
2022/06/30 16:32:55;;;;;;;2.83;2.10;;;32.70;39.80;;;;;;10346734;28;20310;-69
2022/06/30 16:37:56;;;;;;;3.40;2.17;;;32.70;40.00;;;;;;10348712;28;20288;-70
2022/06/30 16:42:56;;;;;;;4.47;2.10;;;32.70;40.30;;;;;;10356143;28;20251;-70
2022/06/30 16:47:58;;;;;;;2.93;2.20;;;32.60;40.80;;;;;;10349310;28;20226;-69
2022/06/30 16:52:59;;;;;;;6.27;2.30;;;32.50;41.10;;;;;;10350368;28;20233;-69
2022/06/30 16:58:00;;;;;;;3.23;2.30;;;32.60;41.00;;;;;;10337653;28;20224;-69
2022/06/30 17:03:01;;;;;;;4.40;2.50;;;32.50;41.20;;;;;;10354168;28;20304;-68
2022/06/30 17:08:01;;;;;;;5.60;2.30;;;32.50;41.60;;;;;;10347482;28;20308;-70
2022/06/30 17:13:03;;;;;;;3.37;2.40;;;32.40;41.80;;;;;;10353681;28;20213;-70
2022/06/30 17:18:04;;;;;;;3.27;2.97;;;32.30;42.50;;;;;;10362939;28;20222;-69
2022/06/30 17:23:05;;;;;;;5.50;2.40;;;32.20;42.50;;;;;;10346734;28;20218;-69
2022/06/30 17:28:08;;;;;;;4.20;2.50;;;32.10;43.00;;;;;;10336623;28;20308;-69
2022/06/30 17:33:08;;;;;;;4.00;2.77;;;32.00;44.00;;;;;;10337728;28;20248;-70
2022/06/30 17:38:09;;;;;;;5.63;2.97;;;31.90;43.80;;;;;;10354159;28;20256;-69
2022/06/30 17:43:10;;;;;;;2.60;2.40;;;31.70;43.80;;;;;;10328262;28;20884;-69
2022/06/30 17:48:10;;;;;;;5.40;2.20;;;31.60;44.50;;;;;;10353064;28;20220;-69
2022/06/30 17:53:12;;;;;;;2.60;2.40;;;31.50;45.00;;;;;;10345635;28;20771;-69
2022/06/30 17:58:15;;;;;;;4.07;2.33;;;31.40;45.60;;;;;;10345395;28;20217;-69
2022/06/30 18:03:19;;;;;;;4.00;2.40;;;31.30;46.30;;;;;;10355055;28;20213;-69
2022/06/30 18:13:40;;;;;;;4.90;2.63;;;30.90;47.00;;;;;;10345645;28;20233;-69
2022/06/30 18:18:42;;;;;;;4.17;2.70;;;30.70;47.50;;;;;;10347405;28;20246;-70
2022/06/30 18:23:43;;;;;;;3.03;2.50;;;30.40;48.10;;;;;;10347584;28;20348;-69
2022/06/30 18:28:44;;;;;;;3.87;2.70;;;30.30;48.70;;;;;;10350980;28;20318;-70
2022/06/30 18:33:44;;;;;;;3.93;2.50;;;30.10;49.60;;;;;;10347561;28;20225;-69
2022/06/30 18:38:45;;;;;;;10.40;3.20;;;29.90;50.60;;;;;;10345358;28;20276;-69
2022/06/30 18:43:46;;;;;;;5.87;3.23;;;29.50;59.50;;;;;;10349879;28;20228;-69
2022/06/30 18:48:47;;;;;;;12.43;3.60;;;28.70;63.30;;;;;;10341587;28;20217;-70
2022/06/30 18:53:47;;;;;;;9.43;4.13;;;28.10;65.50;;;;;;10347707;28;20217;-68
2022/06/30 18:58:51;;;;;;;10.23;3.40;;;27.70;67.70;;;;;;10345008;28;20218;-68
2022/06/30 19:03:52;;;;;;;4.90;3.37;;;27.40;68.80;;;;;;10348335;28;20259;-69
2022/06/30 19:08:53;;;;;;;8.87;3.10;;;27.20;68.40;;;;;;10326946;28;20264;-68
2022/06/30 19:13:53;;;;;;;8.13;3.13;;;26.90;72.80;;;;;;10348178;28;20600;-68
2022/06/30 19:18:54;;;;;;;20.40;5.90;;;26.30;75.90;;;;;;10350467;28;20251;-68
2022/06/30 19:23:54;;;;;;;7.87;4.17;;;25.90;92.80;;;;;;10344023;28;20218;-68
2022/06/30 19:28:56;;;;;;;6.93;3.60;;;25.10;99.90;;;;;;10348399;28;20225;-69
2022/06/30 19:33:57;;;;;;;7.73;3.60;;;24.60;99.90;;;;;;10343566;28;20229;-69
2022/06/30 19:38:59;;;;;;;4.50;3.73;;;24.30;99.90;;;;;;10342441;28;20224;-69
2022/06/30 19:43:59;;;;;;;7.13;3.70;;;24.30;99.90;;;;;;10348770;28;20292;-69
2022/06/30 19:49:01;;;;;;;7.93;4.00;;;24.30;99.90;;;;;;10325331;28;20221;-69
2022/06/30 19:54:01;;;;;;;9.17;4.30;;;24.20;99.90;;;;;;10358144;28;20253;-68
2022/06/30 19:59:02;;;;;;;6.30;3.93;;;24.10;99.90;;;;;;10341691;28;20693;-69
2022/06/30 20:14:41;;;;;;;5.23;3.23;;;23.70;99.90;;;;;;10352376;28;20210;-69
2022/06/30 20:19:44;;;;;;;4.87;3.03;;;23.60;99.90;;;;;;10352915;28;20230;-69
2022/06/30 20:24:45;;;;;;;7.83;3.23;;;23.50;99.90;;;;;;10351223;28;20218;-69
2022/06/30 20:29:45;;;;;;;8.83;3.80;;;23.20;99.90;;;;;;10352858;28;20237;-69
2022/06/30 20:34:46;;;;;;;9.57;2.87;;;23.10;99.90;;;;;;10355064;28;20737;-70
2022/06/30 20:39:47;;;;;;;9.13;3.63;;;22.90;99.90;;;;;;10331942;28;20799;-68
2022/06/30 20:44:49;;;;;;;8.13;3.53;;;22.70;99.90;;;;;;10333405;28;20703;-68
2022/06/30 20:55:08;;;;;;;8.30;3.33;;;22.40;99.90;;;;;;10319917;28;20222;-68
2022/06/30 21:00:09;;;;;;;7.80;3.33;;;22.20;99.90;;;;;;10348463;28;20178;-69
2022/06/30 21:05:10;;;;;;;5.87;3.00;;;22.10;99.90;;;;;;10332398;28;20197;-68
2022/06/30 21:10:11;;;;;;;7.03;3.20;;;22.00;99.90;;;;;;10324888;28;20214;-68
2022/06/30 21:15:11;;;;;;;5.27;3.10;;;21.90;99.90;;;;;;10344226;28;20583;-68
2022/06/30 21:20:12;;;;;;;5.07;2.63;;;21.80;99.90;;;;;;10338432;28;20190;-67
2022/06/30 21:25:13;;;;;;;5.30;2.90;;;21.80;99.90;;;;;;10337983;28;20185;-68
2022/06/30 21:30:13;;;;;;;7.67;3.13;;;21.70;99.90;;;;;;10337532;28;20218;-66
2022/06/30 21:35:14;;;;;;;8.00;2.73;;;21.80;99.90;;;;;;10339032;28;20181;-68
2022/06/30 21:40:15;;;;;;;5.93;2.50;;;21.70;99.90;;;;;;10345473;28;20887;-67
2022/06/30 21:45:15;;;;;;;4.80;2.87;;;21.70;99.90;;;;;;10345162;28;20178;-68
2022/06/30 21:50:16;;;;;;;3.33;2.20;;;21.80;99.90;;;;;;10330743;28;20218;-67
2022/06/30 21:55:17;;;;;;;4.97;2.70;;;21.70;99.90;;;;;;10342634;28;20247;-67
2022/06/30 22:00:17;;;;;;;7.90;2.57;;;21.60;99.90;;;;;;10338110;28;20589;-67
2022/06/30 22:05:24;;;;;;;4.50;2.57;;;21.50;99.90;;;;;;10331727;28;20259;-67
2022/06/30 22:10:25;;;;;;;3.93;2.50;;;21.50;99.90;;;;;;10337066;28;20233;-67
2022/06/30 22:15:26;;;;;;;3.37;2.30;;;21.50;99.90;;;;;;10346731;28;20222;-67
2022/06/30 22:20:27;;;;;;;4.17;2.00;;;21.50;99.90;;;;;;10330264;28;20223;-68
2022/06/30 22:25:28;;;;;;;5.13;2.20;;;21.40;99.90;;;;;;10343162;28;20225;-68
2022/06/30 22:30:29;;;;;;;1.80;1.70;;;21.30;99.90;;;;;;10343546;28;20605;-68
2022/06/30 22:35:30;;;;;;;2.87;1.63;;;21.20;99.90;;;;;;10345594;28;20220;-68
2022/06/30 22:40:30;;;;;;;2.73;1.50;;;21.00;99.90;;;;;;10328930;28;20308;-69
2022/06/30 22:45:31;;;;;;;2.03;1.23;;;20.90;99.90;;;;;;10334369;28;20225;-68
2022/06/30 22:50:32;;;;;;;2.60;1.00;;;20.80;99.90;;;;;;10332179;28;20248;-68
2022/06/30 22:55:35;;;;;;;2.27;0.80;;;20.70;99.90;;;;;;10323758;28;20231;-67
2022/06/30 23:00:36;;;;;;;3.60;1.00;;;20.60;99.90;;;;;;10335173;28;20720;-66
2022/06/30 23:05:38;;;;;;;3.37;0.70;;;20.50;99.90;;;;;;10335757;28;20240;-66
2022/06/30 23:10:39;;;;;;;1.43;0.60;;;20.40;99.90;;;;;;10339248;28;20259;-67
2022/06/30 23:15:39;;;;;;;0.70;0.40;;;20.30;99.90;;;;;;10333255;28;20226;-67
2022/06/30 23:20:41;;;;;;;0.53;0.40;;;20.30;99.90;;;;;;10324502;28;20699;-66
2022/06/30 23:25:42;;;;;;;0.63;0.33;;;20.20;99.90;;;;;;10345431;28;20705;-67
2022/06/30 23:30:43;;;;;;;1.90;0.33;;;20.10;99.90;;;;;;10338415;28;20228;-67
2022/06/30 23:35:44;;;;;;;2.10;0.50;;;20.00;99.90;;;;;;10350626;28;20647;-66
2022/06/30 23:40:45;;;;;;;0.80;0.40;;;19.90;99.90;;;;;;10337984;28;20221;-67
2022/06/30 23:45:45;;;;;;;0.93;0.30;;;19.90;99.90;;;;;;10348663;28;20599;-67
2022/06/30 23:50:46;;;;;;;2.47;0.40;;;19.90;99.90;;;;;;10335326;28;20653;-66
2022/06/30 23:55:50;;;;;;;0.30;0.30;;;19.80;99.90;;;;;;10350896;28;20717;-67
